createdAt,value
2023-07-17T00:00:02.570Z,70.57
2023-07-17T00:00:16.673Z,70.54
2023-07-17T00:00:32.094Z,71.01
2023-07-17T00:00:48.113Z,70.70
2023-07-17T00:01:00.151Z,70.66
2023-07-17T00:01:12.157Z,70.20
2023-07-17T00:01:24.333Z,70.17
2023-07-17T00:01:36.458Z,70.02
2023-07-17T00:01:48.551Z,70.03
2023-07-17T00:02:00.584Z,69.75
2023-07-17T00:02:12.581Z,69.90
2023-07-17T00:02:25.166Z,69.97
2023-07-17T00:02:37.159Z,70.00
2023-07-17T00:02:49.225Z,70.38
2023-07-17T00:03:01.391Z,70.43
2023-07-17T00:03:13.663Z,70.13
2023-07-17T00:03:26.080Z,70.27
2023-07-17T00:03:38.204Z,70.03
2023-07-17T00:03:51.326Z,69.98
2023-07-17T00:04:03.561Z,70.27
2023-07-17T00:04:15.631Z,70.48
2023-07-17T00:04:27.620Z,70.37
2023-07-17T00:04:39.566Z,70.73
2023-07-17T00:04:51.752Z,70.87
2023-07-17T00:05:05.315Z,70.62
2023-07-17T00:05:17.700Z,70.90
2023-07-17T00:05:29.682Z,70.80
2023-07-17T00:05:41.700Z,70.49
2023-07-17T00:05:53.717Z,70.66
2023-07-17T00:06:06.125Z,71.30
2023-07-17T00:06:18.166Z,71.18
2023-07-17T00:06:30.834Z,71.31
2023-07-17T00:06:42.797Z,71.02
2023-07-17T00:06:54.763Z,70.62
2023-07-17T00:07:06.752Z,70.62
2023-07-17T00:07:18.698Z,71.03
2023-07-17T00:07:31.351Z,71.25
2023-07-17T00:07:43.458Z,70.81
2023-07-17T00:07:55.423Z,70.84
2023-07-17T00:08:07.596Z,70.81
2023-07-17T00:08:19.615Z,70.76
2023-07-17T00:08:31.709Z,70.64
2023-07-17T00:08:43.692Z,70.99
2023-07-17T00:08:55.622Z,70.87
2023-07-17T00:09:07.853Z,70.70
2023-07-17T00:09:19.776Z,70.63
2023-07-17T00:09:31.880Z,70.34
2023-07-17T00:09:44.575Z,70.19
2023-07-17T00:09:56.698Z,70.32
2023-07-17T00:10:10.272Z,70.23
2023-07-17T00:10:22.342Z,70.07
2023-07-17T00:10:34.302Z,70.27
2023-07-17T00:10:46.338Z,70.31
2023-07-17T00:10:59.305Z,70.51
2023-07-17T00:11:11.275Z,70.53
2023-07-17T00:11:23.632Z,70.51
2023-07-17T00:11:35.626Z,70.42
2023-07-17T00:11:47.646Z,70.73
2023-07-17T00:11:59.643Z,70.94
2023-07-17T00:12:11.623Z,70.83
2023-07-17T00:12:23.638Z,70.68
2023-07-17T00:12:37.403Z,70.63
2023-07-17T00:12:49.449Z,70.53
2023-07-17T00:13:01.510Z,70.48
2023-07-17T00:13:13.531Z,70.50
2023-07-17T00:13:26.196Z,70.53
2023-07-17T00:13:38.151Z,70.48
2023-07-17T00:13:50.120Z,70.24
2023-07-17T00:14:02.139Z,70.84
2023-07-17T00:14:14.569Z,70.90
2023-07-17T00:14:26.673Z,70.86
2023-07-17T00:14:38.714Z,71.00
2023-07-17T00:14:50.744Z,71.03
2023-07-17T00:15:06.202Z,70.73
2023-07-17T00:15:18.191Z,70.76
2023-07-17T00:15:30.173Z,70.53
2023-07-17T00:15:43.074Z,70.65
2023-07-17T00:15:55.256Z,70.40
2023-07-17T00:16:07.213Z,70.82
2023-07-17T00:16:20.962Z,71.40
2023-07-17T00:16:36.295Z,70.78
2023-07-17T00:16:48.581Z,70.86
2023-07-17T00:17:00.568Z,71.02
2023-07-17T00:17:13.480Z,71.48
2023-07-17T00:17:25.737Z,71.14
2023-07-17T00:17:37.884Z,70.79
2023-07-17T00:17:49.968Z,71.10
2023-07-17T00:18:02.193Z,70.74
2023-07-17T00:18:14.385Z,70.96
2023-07-17T00:18:26.384Z,70.96
2023-07-17T00:18:39.226Z,70.89
2023-07-17T00:18:51.166Z,70.63
2023-07-17T00:19:03.138Z,70.91
2023-07-17T00:19:15.060Z,70.58
2023-07-17T00:19:27.209Z,70.88
2023-07-17T00:19:40.113Z,70.50
2023-07-17T00:19:57.154Z,70.65
2023-07-17T00:20:12.831Z,70.37
2023-07-17T00:20:24.786Z,70.29
2023-07-17T00:20:36.806Z,70.31
2023-07-17T00:20:48.861Z,70.31
2023-07-17T00:21:00.928Z,70.33
2023-07-17T00:21:12.900Z,70.83
2023-07-17T00:21:25.223Z,70.68
2023-07-17T00:21:37.225Z,71.01
2023-07-17T00:21:49.192Z,71.04
2023-07-17T00:22:01.232Z,70.86
2023-07-17T00:22:13.192Z,71.53
2023-07-17T00:22:25.677Z,71.15
2023-07-17T00:22:37.860Z,71.21
2023-07-17T00:22:49.846Z,71.48
2023-07-17T00:23:02.051Z,71.07
2023-07-17T00:23:14.122Z,71.35
2023-07-17T00:23:26.155Z,71.11
2023-07-17T00:23:38.130Z,71.54
2023-07-17T00:23:50.184Z,71.46
2023-07-17T00:24:02.121Z,71.27
2023-07-17T00:24:14.410Z,71.08
2023-07-17T00:24:26.428Z,71.39
2023-07-17T00:24:38.356Z,72.16
2023-07-17T00:24:53.754Z,72.08
2023-07-17T00:25:06.003Z,72.39
2023-07-17T00:25:18.387Z,72.32
2023-07-17T00:25:30.506Z,71.74
2023-07-17T00:25:42.453Z,71.74
2023-07-17T00:25:54.429Z,71.67
2023-07-17T00:26:06.443Z,71.75
2023-07-17T00:26:18.658Z,72.58
2023-07-17T00:26:31.379Z,72.77
2023-07-17T00:26:43.667Z,72.86
2023-07-17T00:26:55.715Z,72.77
2023-07-17T00:27:07.664Z,72.42
2023-07-17T00:27:20.629Z,72.39
2023-07-17T00:27:32.894Z,72.41
2023-07-17T00:27:44.850Z,72.60
2023-07-17T00:27:56.879Z,72.48
2023-07-17T00:28:08.840Z,72.09
2023-07-17T00:28:20.768Z,71.65
2023-07-17T00:28:32.888Z,71.63
2023-07-17T00:28:44.849Z,71.53
2023-07-17T00:29:36.370Z,70.94
2023-07-17T00:29:51.540Z,71.00
2023-07-17T00:30:04.276Z,70.97
2023-07-17T00:30:16.317Z,70.64
2023-07-17T00:30:31.881Z,70.57
2023-07-17T00:30:44.263Z,70.17
2023-07-17T00:30:56.330Z,70.43
2023-07-17T00:31:08.436Z,71.15
2023-07-17T00:31:20.913Z,71.37
2023-07-17T00:31:33.137Z,71.20
2023-07-17T00:31:45.234Z,70.70
2023-07-17T00:31:58.754Z,70.59
2023-07-17T00:32:14.781Z,70.64
2023-07-17T00:32:26.876Z,70.61
2023-07-17T00:32:39.345Z,70.33
2023-07-17T00:32:51.935Z,70.47
2023-07-17T00:33:04.024Z,70.16
2023-07-17T00:33:16.350Z,70.18
2023-07-17T00:33:28.600Z,70.10
2023-07-17T00:33:40.621Z,70.05
2023-07-17T00:33:52.563Z,70.16
2023-07-17T00:34:04.541Z,69.85
2023-07-17T00:34:17.004Z,69.94
2023-07-17T00:34:28.963Z,69.95
2023-07-17T00:34:42.616Z,70.67
2023-07-17T00:34:54.571Z,70.81
2023-07-17T00:35:06.975Z,70.61
2023-07-17T00:35:18.984Z,70.47
2023-07-17T00:35:30.952Z,70.95
2023-07-17T00:35:43.027Z,70.52
2023-07-17T00:35:55.012Z,70.47
2023-07-17T00:36:07.230Z,70.41
2023-07-17T00:36:19.170Z,70.17
2023-07-17T00:36:31.169Z,70.26
2023-07-17T00:36:43.197Z,70.30
2023-07-17T00:36:55.297Z,69.93
2023-07-17T00:37:07.763Z,69.92
2023-07-17T00:37:19.927Z,69.99
2023-07-17T00:37:31.898Z,69.77
2023-07-17T00:37:44.315Z,69.89
2023-07-17T00:37:56.297Z,69.58
2023-07-17T00:38:08.298Z,69.56
2023-07-17T00:38:20.753Z,69.95
2023-07-17T00:38:32.710Z,69.56
2023-07-17T00:38:44.902Z,69.50
2023-07-17T00:38:56.863Z,69.61
2023-07-17T00:39:08.945Z,69.55
2023-07-17T00:39:21.528Z,69.18
2023-07-17T00:39:34.204Z,69.14
2023-07-17T00:39:46.462Z,69.16
2023-07-17T00:39:58.827Z,69.20
2023-07-17T00:40:11.061Z,69.10
2023-07-17T00:40:23.069Z,69.29
2023-07-17T00:40:39.986Z,69.22
2023-07-17T00:40:51.979Z,69.21
2023-07-17T00:41:04.164Z,69.16
2023-07-17T00:41:16.310Z,69.54
2023-07-17T00:41:28.656Z,69.73
2023-07-17T00:41:40.678Z,69.71
2023-07-17T00:41:52.684Z,69.84
2023-07-17T00:42:04.968Z,69.78
2023-07-17T00:42:16.947Z,69.68
2023-07-17T00:42:29.001Z,69.64
2023-07-17T00:42:41.295Z,69.95
2023-07-17T00:42:58.817Z,70.33
2023-07-17T00:43:13.513Z,70.11
2023-07-17T00:43:25.529Z,70.12
2023-07-17T00:43:37.750Z,69.94
2023-07-17T00:43:49.739Z,70.07
2023-07-17T00:44:01.736Z,70.20
2023-07-17T00:44:13.866Z,70.13
2023-07-17T00:44:26.034Z,70.01
2023-07-17T00:44:39.272Z,70.29
2023-07-17T00:44:52.088Z,70.28
2023-07-17T00:45:04.723Z,70.11
2023-07-17T00:45:16.765Z,70.42
2023-07-17T00:45:32.818Z,70.44
2023-07-17T00:45:45.979Z,70.22
2023-07-17T00:45:58.500Z,70.13
2023-07-17T00:46:10.810Z,70.18
2023-07-17T00:46:22.976Z,70.23
2023-07-17T00:46:35.390Z,70.23
2023-07-17T00:46:49.735Z,70.38
2023-07-17T00:47:01.884Z,70.35
2023-07-17T00:47:14.074Z,70.08
2023-07-17T00:47:26.170Z,70.08
2023-07-17T00:47:38.532Z,70.02
2023-07-17T00:47:50.621Z,70.14
2023-07-17T00:48:04.490Z,70.07
2023-07-17T00:48:16.575Z,70.06
2023-07-17T00:48:28.652Z,69.70
2023-07-17T00:48:40.876Z,69.95
2023-07-17T00:48:52.985Z,69.93
2023-07-17T00:49:07.560Z,69.89
2023-07-17T00:49:21.718Z,70.09
2023-07-17T00:49:34.604Z,70.22
2023-07-17T00:49:49.024Z,70.20
2023-07-17T00:50:02.432Z,69.78
2023-07-17T00:50:14.498Z,69.80
2023-07-17T00:50:28.272Z,70.16
2023-07-17T00:50:40.706Z,69.93
2023-07-17T00:50:52.723Z,69.83
2023-07-17T00:51:04.845Z,69.71
2023-07-17T00:51:17.175Z,70.00
2023-07-17T00:51:29.410Z,69.73
2023-07-17T00:51:42.586Z,69.48
2023-07-17T00:51:57.355Z,69.43
2023-07-17T00:52:11.261Z,69.21
2023-07-17T00:52:23.862Z,69.25
2023-07-17T00:52:39.715Z,69.08
2023-07-17T00:52:51.881Z,69.26
2023-07-17T00:53:05.074Z,69.08
2023-07-17T00:53:17.667Z,69.11
2023-07-17T00:53:29.803Z,69.07
2023-07-17T00:53:43.768Z,69.20
2023-07-17T00:53:56.643Z,69.11
2023-07-17T00:54:11.150Z,69.36
2023-07-17T00:54:23.557Z,69.31
2023-07-17T00:54:36.458Z,69.84
2023-07-17T00:54:49.635Z,69.92
2023-07-17T00:55:02.284Z,70.02
2023-07-17T00:55:15.658Z,70.44
2023-07-17T00:55:27.901Z,70.29
2023-07-17T00:55:39.888Z,70.30
2023-07-17T00:55:51.868Z,70.37
2023-07-17T00:56:04.003Z,70.37
2023-07-17T00:56:16.566Z,70.44
2023-07-17T00:56:29.904Z,70.30
2023-07-17T00:56:43.232Z,70.05
2023-07-17T00:56:58.087Z,70.00
2023-07-17T00:57:12.413Z,70.18
2023-07-17T00:57:26.120Z,70.11
2023-07-17T00:57:39.049Z,70.04
2023-07-17T00:57:52.808Z,69.83
2023-07-17T00:58:05.442Z,69.81
2023-07-17T00:58:17.535Z,69.80
2023-07-17T00:58:29.648Z,69.98
2023-07-17T00:58:41.993Z,69.91
2023-07-17T00:58:54.011Z,69.98
2023-07-17T00:59:06.533Z,70.19
2023-07-17T00:59:18.752Z,70.08
2023-07-17T00:59:31.691Z,70.32
2023-07-17T00:59:43.810Z,70.24
2023-07-17T00:59:55.937Z,70.34
2023-07-17T01:00:10.103Z,70.59
2023-07-17T01:00:24.410Z,70.15
2023-07-17T01:00:37.432Z,70.69
2023-07-17T01:00:49.635Z,70.37
2023-07-17T01:01:04.041Z,70.36
2023-07-17T01:01:16.613Z,70.41
2023-07-17T01:01:29.468Z,70.08
2023-07-17T01:01:42.952Z,70.20
2023-07-17T01:01:55.499Z,70.36
2023-07-17T01:02:09.533Z,70.63
2023-07-17T01:02:23.474Z,70.74
2023-07-17T01:02:40.320Z,71.18
2023-07-17T01:02:54.327Z,71.03
2023-07-17T01:03:06.618Z,71.07
2023-07-17T01:03:18.798Z,71.95
2023-07-17T01:03:31.737Z,71.45
2023-07-17T01:03:43.823Z,71.06
2023-07-17T01:03:56.412Z,70.72
2023-07-17T01:04:09.718Z,70.67
2023-07-17T01:04:21.671Z,70.67
2023-07-17T01:04:33.639Z,70.69
2023-07-17T01:04:48.781Z,71.10
2023-07-17T01:05:00.848Z,70.72
2023-07-17T01:05:12.842Z,70.73
2023-07-17T01:05:25.059Z,70.71
2023-07-17T01:05:37.401Z,70.46
2023-07-17T01:05:49.370Z,70.20
2023-07-17T01:06:01.392Z,70.10
2023-07-17T01:06:13.373Z,70.37
2023-07-17T01:06:28.460Z,70.22
2023-07-17T01:06:40.541Z,70.66
2023-07-17T01:06:52.560Z,71.08
2023-07-17T01:07:04.803Z,71.30
2023-07-17T01:07:17.146Z,71.50
2023-07-17T01:07:29.068Z,70.94
2023-07-17T01:07:41.244Z,71.00
2023-07-17T01:07:55.458Z,70.81
2023-07-17T01:08:07.458Z,70.75
2023-07-17T01:08:19.413Z,71.16
2023-07-17T01:08:32.388Z,71.18
2023-07-17T01:08:44.488Z,71.32
2023-07-17T01:08:56.523Z,71.19
2023-07-17T01:09:11.008Z,71.36
2023-07-17T01:09:23.172Z,71.35
2023-07-17T01:09:36.660Z,72.10
2023-07-17T01:09:49.367Z,72.39
2023-07-17T01:10:01.705Z,71.87
2023-07-17T01:10:13.765Z,71.64
2023-07-17T01:10:26.884Z,71.71
2023-07-17T01:10:38.896Z,71.39
2023-07-17T01:10:51.622Z,71.06
2023-07-17T01:11:03.813Z,71.26
2023-07-17T01:11:16.936Z,71.32
2023-07-17T01:11:29.021Z,71.21
2023-07-17T01:11:41.075Z,70.92
2023-07-17T01:11:53.059Z,71.18
2023-07-17T01:12:05.424Z,71.07
2023-07-17T01:12:17.401Z,70.98
2023-07-17T01:12:29.601Z,70.58
2023-07-17T01:12:41.656Z,70.90
2023-07-17T01:12:53.728Z,70.92
2023-07-17T01:13:05.690Z,70.83
2023-07-17T01:13:17.716Z,70.52
2023-07-17T01:13:29.650Z,70.76
2023-07-17T01:13:45.749Z,70.84
2023-07-17T01:13:57.719Z,70.76
2023-07-17T01:14:19.699Z,70.85
2023-07-17T01:14:31.696Z,70.84
2023-07-17T01:14:43.748Z,70.94
2023-07-17T01:14:55.884Z,70.82
2023-07-17T01:15:08.229Z,72.17
2023-07-17T01:15:20.298Z,71.73
2023-07-17T01:15:32.245Z,71.77
2023-07-17T01:15:44.207Z,71.91
2023-07-17T01:15:56.243Z,71.70
2023-07-17T01:16:08.679Z,71.48
2023-07-17T01:16:20.674Z,71.62
2023-07-17T01:16:32.721Z,71.18
2023-07-17T01:16:46.977Z,71.38
2023-07-17T01:16:59.055Z,71.64
2023-07-17T01:17:11.107Z,71.36
2023-07-17T01:17:23.852Z,71.34
2023-07-17T01:17:35.841Z,71.43
2023-07-17T01:17:47.904Z,71.42
2023-07-17T01:17:59.973Z,71.65
2023-07-17T01:18:12.021Z,71.44
2023-07-17T01:18:23.983Z,71.62
2023-07-17T01:18:35.962Z,71.36
2023-07-17T01:18:47.932Z,72.27
2023-07-17T01:18:59.939Z,72.51
2023-07-17T01:19:11.881Z,72.80
2023-07-17T01:19:23.854Z,72.81
2023-07-17T01:19:35.790Z,72.94
2023-07-17T01:19:47.796Z,72.06
2023-07-17T01:19:59.793Z,71.95
2023-07-17T01:20:12.091Z,72.12
2023-07-17T01:20:24.142Z,71.78
2023-07-17T01:20:36.145Z,71.50
2023-07-17T01:20:49.546Z,71.47
2023-07-17T01:21:02.657Z,71.53
2023-07-17T01:21:18.217Z,71.37
2023-07-17T01:21:36.345Z,71.36
2023-07-17T01:21:57.803Z,71.27
2023-07-17T01:22:23.030Z,71.12
2023-07-17T01:22:42.675Z,71.13
2023-07-17T01:22:57.766Z,71.00
2023-07-17T01:23:10.431Z,70.98
2023-07-17T01:23:22.414Z,70.76
2023-07-17T01:23:34.614Z,70.87
2023-07-17T01:23:46.713Z,70.75
2023-07-17T01:23:58.686Z,71.01
2023-07-17T01:24:10.712Z,71.20
2023-07-17T01:24:22.695Z,70.86
2023-07-17T01:24:34.700Z,72.18
2023-07-17T01:24:46.742Z,72.29
2023-07-17T01:24:58.727Z,72.34
2023-07-17T01:25:10.695Z,72.37
2023-07-17T01:25:22.797Z,73.17
2023-07-17T01:25:35.189Z,73.05
2023-07-17T01:25:47.252Z,72.57
2023-07-17T01:25:59.560Z,72.63
2023-07-17T01:26:13.562Z,72.52
2023-07-17T01:26:25.576Z,72.55
2023-07-17T01:26:37.571Z,72.47
2023-07-17T01:26:49.664Z,72.84
2023-07-17T01:27:01.726Z,72.44
2023-07-17T01:27:14.251Z,72.62
2023-07-17T01:27:26.251Z,72.25
2023-07-17T01:27:38.238Z,72.34
2023-07-17T01:27:50.273Z,72.28
2023-07-17T01:28:02.297Z,72.47
2023-07-17T01:28:14.473Z,72.19
2023-07-17T01:28:26.887Z,73.26
2023-07-17T01:28:39.182Z,73.46
2023-07-17T01:28:51.273Z,73.75
2023-07-17T01:29:03.422Z,73.57
2023-07-17T01:29:15.797Z,73.51
2023-07-17T01:29:27.874Z,73.36
2023-07-17T01:29:39.874Z,73.48
2023-07-17T01:29:51.878Z,73.58
2023-07-17T01:30:06.152Z,73.56
2023-07-17T01:30:18.502Z,73.29
2023-07-17T01:30:30.531Z,73.09
2023-07-17T01:30:42.612Z,72.48
2023-07-17T01:30:54.657Z,73.56
2023-07-17T01:31:07.213Z,73.25
2023-07-17T01:31:19.738Z,73.55
2023-07-17T01:31:32.191Z,73.08
2023-07-17T01:31:44.416Z,73.07
2023-07-17T01:31:56.387Z,72.77
2023-07-17T01:32:08.623Z,72.70
2023-07-17T01:32:21.862Z,72.45
2023-07-17T01:32:34.195Z,71.86
2023-07-17T01:32:46.226Z,71.76
2023-07-17T01:32:58.280Z,71.90
2023-07-17T01:33:10.561Z,72.12
2023-07-17T01:33:22.745Z,72.16
2023-07-17T01:33:35.330Z,72.20
2023-07-17T01:33:47.401Z,72.43
2023-07-17T01:33:59.476Z,72.65
2023-07-17T01:34:11.482Z,72.90
2023-07-17T01:34:23.584Z,72.88
2023-07-17T01:34:36.789Z,72.61
2023-07-17T01:34:48.798Z,72.21
2023-07-17T01:35:00.731Z,72.54
2023-07-17T01:35:12.775Z,73.14
2023-07-17T01:35:24.771Z,72.78
2023-07-17T01:35:36.711Z,72.80
2023-07-17T01:35:48.646Z,72.75
2023-07-17T01:36:01.910Z,73.08
2023-07-17T01:36:14.925Z,73.41
2023-07-17T01:36:27.683Z,73.58
2023-07-17T01:36:39.692Z,73.16
2023-07-17T01:36:52.766Z,73.15
2023-07-17T01:37:05.367Z,73.34
2023-07-17T01:37:17.372Z,73.62
2023-07-17T01:37:30.002Z,73.38
2023-07-17T01:37:43.946Z,73.40
2023-07-17T01:37:55.947Z,73.37
2023-07-17T01:38:09.273Z,73.00
2023-07-17T01:38:21.322Z,72.67
2023-07-17T01:38:34.776Z,72.82
2023-07-17T01:38:46.888Z,72.41
2023-07-17T01:38:58.920Z,72.46
2023-07-17T01:39:11.107Z,72.19
2023-07-17T01:39:25.628Z,72.51
2023-07-17T01:39:38.277Z,72.56
2023-07-17T01:39:50.280Z,72.66
2023-07-17T01:40:03.780Z,72.41
2023-07-17T01:40:17.130Z,72.29
2023-07-17T01:40:29.080Z,72.21
2023-07-17T01:40:41.066Z,72.56
2023-07-17T01:40:53.564Z,72.90
2023-07-17T01:41:05.533Z,72.70
2023-07-17T01:41:17.765Z,73.18
2023-07-17T01:41:30.082Z,73.55
2023-07-17T01:41:42.058Z,73.54
2023-07-17T01:41:54.194Z,73.75
2023-07-17T01:42:06.319Z,73.79
2023-07-17T01:42:18.348Z,73.79
2023-07-17T01:42:30.356Z,73.62
2023-07-17T01:42:42.325Z,73.27
2023-07-17T01:42:54.303Z,73.19
2023-07-17T01:43:06.452Z,73.19
2023-07-17T01:43:18.641Z,73.27
2023-07-17T01:43:30.651Z,72.78
2023-07-17T01:43:42.646Z,72.45
2023-07-17T01:43:54.581Z,72.50
2023-07-17T01:44:06.621Z,72.49
2023-07-17T01:44:18.538Z,72.47
2023-07-17T01:44:31.903Z,72.11
2023-07-17T01:44:43.848Z,71.97
2023-07-17T01:44:55.894Z,71.89
2023-07-17T01:45:08.631Z,72.00
2023-07-17T01:45:20.764Z,71.97
2023-07-17T01:45:32.704Z,72.11
2023-07-17T01:45:44.697Z,72.02
2023-07-17T01:45:56.660Z,71.89
2023-07-17T01:46:09.327Z,72.36
2023-07-17T01:46:21.412Z,72.17
2023-07-17T01:46:34.133Z,72.06
2023-07-17T01:46:46.301Z,72.29
2023-07-17T01:46:59.560Z,72.30
2023-07-17T01:47:11.666Z,73.04
2023-07-17T01:47:24.802Z,73.38
2023-07-17T01:47:37.304Z,73.07
2023-07-17T01:47:50.645Z,72.73
2023-07-17T01:48:02.768Z,72.69
2023-07-17T01:48:15.884Z,72.97
2023-07-17T01:48:28.029Z,73.45
2023-07-17T01:48:40.031Z,73.27
2023-07-17T01:48:52.060Z,73.17
2023-07-17T01:49:04.260Z,72.62
2023-07-17T01:49:16.402Z,72.47
2023-07-17T01:49:28.432Z,72.60
2023-07-17T01:49:41.992Z,72.83
2023-07-17T01:49:53.968Z,72.73
2023-07-17T01:50:06.994Z,72.28
2023-07-17T01:50:19.421Z,72.44
2023-07-17T01:50:31.419Z,73.29
2023-07-17T01:50:43.421Z,73.57
2023-07-17T01:50:55.405Z,73.25
2023-07-17T01:51:07.470Z,73.04
2023-07-17T01:51:19.629Z,73.11
2023-07-17T01:51:31.809Z,73.54
2023-07-17T01:51:43.745Z,73.31
2023-07-17T01:51:55.775Z,73.82
2023-07-17T01:52:10.085Z,74.51
2023-07-17T01:52:22.065Z,74.89
2023-07-17T01:52:34.049Z,74.80
2023-07-17T01:52:46.030Z,74.78
2023-07-17T01:52:58.106Z,74.69
2023-07-17T01:53:10.206Z,74.30
2023-07-17T01:53:22.750Z,74.33
2023-07-17T01:53:34.823Z,74.09
2023-07-17T01:53:46.805Z,73.54
2023-07-17T01:53:58.882Z,73.42
2023-07-17T01:54:10.900Z,73.97
2023-07-17T01:54:22.909Z,73.75
2023-07-17T01:54:35.009Z,73.51
2023-07-17T01:54:46.944Z,73.45
2023-07-17T01:54:59.436Z,73.76
2023-07-17T01:55:11.422Z,73.26
2023-07-17T01:55:23.414Z,73.27
2023-07-17T01:55:35.403Z,73.05
2023-07-17T01:55:47.804Z,73.12
2023-07-17T01:56:01.528Z,72.95
2023-07-17T01:56:13.869Z,72.90
2023-07-17T01:56:26.403Z,72.58
2023-07-17T01:56:38.516Z,72.49
2023-07-17T01:56:50.512Z,72.67
2023-07-17T01:57:02.486Z,72.44
2023-07-17T01:57:14.496Z,72.50
2023-07-17T01:57:27.009Z,72.42
2023-07-17T01:57:39.329Z,72.49
2023-07-17T01:57:51.373Z,72.57
2023-07-17T01:58:03.372Z,72.53
2023-07-17T01:58:15.609Z,72.40
2023-07-17T01:58:28.007Z,72.30
2023-07-17T01:58:40.022Z,72.42
2023-07-17T01:58:52.206Z,72.88
2023-07-17T01:59:04.154Z,72.68
2023-07-17T01:59:16.082Z,72.59
2023-07-17T01:59:28.165Z,72.52
2023-07-17T01:59:40.157Z,72.84
2023-07-17T01:59:52.709Z,72.83
2023-07-17T02:00:04.975Z,72.78
2023-07-17T02:00:17.194Z,73.55
2023-07-17T02:00:29.203Z,73.58
2023-07-17T02:00:41.851Z,73.36
2023-07-17T02:00:57.467Z,73.61
2023-07-17T02:01:09.417Z,73.67
2023-07-17T02:01:22.579Z,73.39
2023-07-17T02:01:34.959Z,73.19
2023-07-17T02:01:46.947Z,73.18
2023-07-17T02:01:58.918Z,73.07
2023-07-17T02:02:11.093Z,72.80
2023-07-17T02:02:23.124Z,72.96
2023-07-17T02:02:35.212Z,73.23
2023-07-17T02:02:47.201Z,73.34
2023-07-17T02:02:59.333Z,73.46
2023-07-17T02:03:11.757Z,73.33
2023-07-17T02:03:24.086Z,73.24
2023-07-17T02:03:37.387Z,73.30
2023-07-17T02:03:49.628Z,73.08
2023-07-17T02:04:02.430Z,73.48
2023-07-17T02:04:14.634Z,73.43
2023-07-17T02:04:26.601Z,73.44
2023-07-17T02:04:38.649Z,73.66
2023-07-17T02:04:50.770Z,73.60
2023-07-17T02:05:03.481Z,73.54
2023-07-17T02:05:15.593Z,73.49
2023-07-17T02:05:27.702Z,73.53
2023-07-17T02:05:39.707Z,73.46
2023-07-17T02:05:51.799Z,73.57
2023-07-17T02:06:03.933Z,73.49
2023-07-17T02:06:17.897Z,73.50
2023-07-17T02:06:30.034Z,73.54
2023-07-17T02:06:42.144Z,73.74
2023-07-17T02:06:54.377Z,73.34
2023-07-17T02:07:06.462Z,73.53
2023-07-17T02:07:18.447Z,74.61
2023-07-17T02:07:30.510Z,74.20
2023-07-17T02:07:42.441Z,74.21
2023-07-17T02:07:54.423Z,74.36
2023-07-17T02:08:07.593Z,74.47
2023-07-17T02:08:19.588Z,74.31
2023-07-17T02:08:31.518Z,74.39
2023-07-17T02:08:43.449Z,74.04
2023-07-17T02:08:55.757Z,73.91
2023-07-17T02:09:08.135Z,74.25
2023-07-17T02:09:20.182Z,74.07
2023-07-17T02:09:32.248Z,73.77
2023-07-17T02:09:44.209Z,73.88
2023-07-17T02:09:56.177Z,73.77
2023-07-17T02:10:08.538Z,74.07
2023-07-17T02:10:20.526Z,73.70
2023-07-17T02:10:32.590Z,73.92
2023-07-17T02:10:45.415Z,73.60
2023-07-17T02:10:57.470Z,73.57
2023-07-17T02:11:09.818Z,73.29
2023-07-17T02:11:21.970Z,73.47
2023-07-17T02:11:33.955Z,74.27
2023-07-17T02:11:45.940Z,74.43
2023-07-17T02:11:57.956Z,74.57
2023-07-17T02:12:10.194Z,74.34
2023-07-17T02:12:22.223Z,74.52
2023-07-17T02:12:34.336Z,74.45
2023-07-17T02:12:46.303Z,74.61
2023-07-17T02:12:58.371Z,74.72
2023-07-17T02:13:11.433Z,75.02
2023-07-17T02:13:23.354Z,75.43
2023-07-17T02:13:35.299Z,75.46
2023-07-17T02:13:47.543Z,75.09
2023-07-17T02:13:59.516Z,74.95
2023-07-17T02:14:12.058Z,74.55
2023-07-17T02:14:24.100Z,74.80
2023-07-17T02:14:36.182Z,75.28
2023-07-17T02:14:48.206Z,74.90
2023-07-17T02:15:00.299Z,74.50
2023-07-17T02:15:13.741Z,74.47
2023-07-17T02:15:25.732Z,74.03
2023-07-17T02:15:37.783Z,73.78
2023-07-17T02:15:49.777Z,73.92
2023-07-17T02:16:01.866Z,73.87
2023-07-17T02:16:13.855Z,74.12
2023-07-17T02:16:26.818Z,74.32
2023-07-17T02:16:39.042Z,74.25
2023-07-17T02:16:51.111Z,74.01
2023-07-17T02:17:03.206Z,73.76
2023-07-17T02:17:15.279Z,73.28
2023-07-17T02:17:27.515Z,73.91
2023-07-17T02:17:40.161Z,73.69
2023-07-17T02:17:52.725Z,73.80
2023-07-17T02:18:04.882Z,74.42
2023-07-17T02:18:16.929Z,74.91
2023-07-17T02:18:31.137Z,75.26
2023-07-17T02:18:43.101Z,75.50
2023-07-17T02:18:55.103Z,75.21
2023-07-17T02:19:08.067Z,74.89
2023-07-17T02:19:20.247Z,74.90
2023-07-17T02:19:32.211Z,75.29
2023-07-17T02:19:44.131Z,74.91
2023-07-17T02:19:56.045Z,75.35
2023-07-17T02:20:11.700Z,75.33
2023-07-17T02:20:24.390Z,75.44
2023-07-17T02:20:36.685Z,74.85
2023-07-17T02:20:51.981Z,74.64
2023-07-17T02:21:05.338Z,74.40
2023-07-17T02:21:17.594Z,73.98
2023-07-17T02:21:29.769Z,74.12
2023-07-17T02:21:41.725Z,73.87
2023-07-17T02:21:53.686Z,73.71
2023-07-17T02:22:05.871Z,73.74
2023-07-17T02:22:17.841Z,74.74
2023-07-17T02:22:29.830Z,74.93
2023-07-17T02:22:42.305Z,74.80
2023-07-17T02:22:54.398Z,74.58
2023-07-17T02:23:06.480Z,74.89
2023-07-17T02:23:18.910Z,75.34
2023-07-17T02:23:31.312Z,75.19
2023-07-17T02:23:43.284Z,74.76
2023-07-17T02:23:55.349Z,74.35
2023-07-17T02:24:07.356Z,74.12
2023-07-17T02:24:20.224Z,73.91
2023-07-17T02:24:32.291Z,74.17
2023-07-17T02:24:44.288Z,74.43
2023-07-17T02:24:56.282Z,74.34
2023-07-17T02:25:08.917Z,73.82
2023-07-17T02:25:21.145Z,74.07
2023-07-17T02:25:33.115Z,74.12
2023-07-17T02:25:45.408Z,73.99
2023-07-17T02:25:57.732Z,74.00
2023-07-17T02:26:12.161Z,74.19
2023-07-17T02:26:24.323Z,74.04
2023-07-17T02:26:36.285Z,74.02
2023-07-17T02:26:48.712Z,74.07
2023-07-17T02:27:02.506Z,73.79
2023-07-17T02:27:14.430Z,73.71
2023-07-17T02:27:26.787Z,73.49
2023-07-17T02:27:38.803Z,73.75
2023-07-17T02:27:50.829Z,73.59
2023-07-17T02:28:02.818Z,73.50
2023-07-17T02:28:16.484Z,73.61
2023-07-17T02:28:28.717Z,73.65
2023-07-17T02:28:40.681Z,74.10
2023-07-17T02:28:53.066Z,74.00
2023-07-17T02:29:05.347Z,74.43
2023-07-17T02:29:17.362Z,74.56
2023-07-17T02:29:29.871Z,74.37
2023-07-17T02:29:42.497Z,74.42
2023-07-17T02:29:55.278Z,74.12
2023-07-17T02:30:07.700Z,74.47
2023-07-17T02:30:20.202Z,74.30
2023-07-17T02:30:32.329Z,74.56
2023-07-17T02:30:44.394Z,74.30
2023-07-17T02:30:57.110Z,74.44
2023-07-17T02:31:09.121Z,74.43
2023-07-17T02:31:22.804Z,74.57
2023-07-17T02:31:35.571Z,74.45
2023-07-17T02:31:48.720Z,74.56
2023-07-17T02:32:01.060Z,74.35
2023-07-17T02:32:13.377Z,74.38
2023-07-17T02:32:26.141Z,74.30
2023-07-17T02:32:39.042Z,74.52
2023-07-17T02:32:51.062Z,74.42
2023-07-17T02:33:04.183Z,74.36
2023-07-17T02:33:16.233Z,74.64
2023-07-17T02:33:28.342Z,74.43
2023-07-17T02:33:40.270Z,74.38
2023-07-17T02:33:52.241Z,74.25
2023-07-17T02:34:04.569Z,74.41
2023-07-17T02:34:16.675Z,74.42
2023-07-17T02:34:28.663Z,74.13
2023-07-17T02:34:40.586Z,74.23
2023-07-17T02:34:52.642Z,73.95
2023-07-17T02:35:05.652Z,74.07
2023-07-17T02:35:17.680Z,73.97
2023-07-17T02:35:29.759Z,73.95
2023-07-17T02:35:41.755Z,74.06
2023-07-17T02:35:53.694Z,74.16
2023-07-17T02:36:05.963Z,73.93
2023-07-17T02:36:17.958Z,73.76
2023-07-17T02:36:30.163Z,73.80
2023-07-17T02:36:43.338Z,74.03
2023-07-17T02:36:55.371Z,73.92
2023-07-17T02:37:16.802Z,73.71
2023-07-17T02:37:29.023Z,73.66
2023-07-17T02:37:41.605Z,73.49
2023-07-17T02:37:53.709Z,73.64
2023-07-17T02:38:06.566Z,73.63
2023-07-17T02:38:18.562Z,74.15
2023-07-17T02:38:30.968Z,74.08
2023-07-17T02:38:42.925Z,73.79
2023-07-17T02:38:54.962Z,73.80
2023-07-17T02:39:06.962Z,73.86
2023-07-17T02:39:19.070Z,73.89
2023-07-17T02:39:31.016Z,73.85
2023-07-17T02:39:43.340Z,74.00
2023-07-17T02:39:55.381Z,73.96
2023-07-17T02:40:13.411Z,73.93
2023-07-17T02:40:25.454Z,73.92
2023-07-17T02:40:37.718Z,74.17
2023-07-17T02:40:49.633Z,73.88
2023-07-17T02:41:02.126Z,73.92
2023-07-17T02:41:15.738Z,73.98
2023-07-17T02:41:28.080Z,74.21
2023-07-17T02:41:40.102Z,74.07
2023-07-17T02:41:52.223Z,74.12